Time;durP1;ratioP1;P1;durP2;ratioP2;P2;SDS_P1;SDS_P2;PMS_P1;PMS_P2;Temp;Humidity;BMP_temperature;BMP_pressure;BME280_temperature;BME280_humidity;BME280_pressure;Samples;Min_cycle;Max_cycle;Signal;HPM_P1;HPM_P2
2022/12/27 00:04:29;;;;;;;;;;;;;;;19.21;41.71;96223.44;10410298;28;1938;-46
2022/12/27 00:09:30;;;;;;;;;;;;;;;19.21;41.72;96233.94;10400272;28;1948;-45
2022/12/27 00:14:30;;;;;;;;;;;;;;;19.21;41.58;96235.78;10389329;28;2058;-46
2022/12/27 00:19:30;;;;;;;;;;;;;;;19.18;41.70;96246.81;10402185;28;2061;-46
2022/12/27 00:24:31;;;;;;;;;;;;;;;19.17;41.75;96256.53;10398157;28;2033;-45
2022/12/27 00:29:32;;;;;;;;;;;;;;;19.16;41.57;96265.47;10393246;28;4522;-44
2022/12/27 00:34:32;;;;;;;;;;;;;;;19.17;41.49;96276.75;10399111;28;1963;-44
2022/12/27 00:39:32;;;;;;;;;;;;;;;19.13;41.73;96300.13;10395517;28;1969;-45
2022/12/27 00:44:33;;;;;;;;;;;;;;;19.09;41.76;96309.56;10392219;28;1975;-44
2022/12/27 00:49:33;;;;;;;;;;;;;;;19.05;41.78;96321.59;10402198;28;2014;-45
2022/12/27 00:54:33;;;;;;;;;;;;;;;19.04;41.89;96333.16;10399388;28;2093;-46
2022/12/27 00:59:34;;;;;;;;;;;;;;;19.01;41.82;96332.84;10394462;28;1989;-44
2022/12/27 01:04:34;;;;;;;;;;;;;;;19.01;41.77;96332.84;10394118;28;1984;-48
2022/12/27 01:09:34;;;;;;;;;;;;;;;19.00;41.78;96341.78;10397626;28;1986;-47
2022/12/27 01:14:35;;;;;;;;;;;;;;;18.99;41.59;96338.38;10398604;28;2077;-44
2022/12/27 01:19:35;;;;;;;;;;;;;;;18.95;41.91;96353.03;10399285;28;1986;-47
2022/12/27 01:24:36;;;;;;;;;;;;;;;18.99;41.76;96369.09;10389293;28;1961;-45
2022/12/27 01:29:36;;;;;;;;;;;;;;;18.96;41.92;96388.78;10389661;28;4416;-45
2022/12/27 01:34:36;;;;;;;;;;;;;;;18.94;42.02;96393.47;10403439;28;1974;-45
2022/12/27 01:39:37;;;;;;;;;;;;;;;18.96;41.87;96407.16;10393775;28;2129;-47
2022/12/27 01:44:38;;;;;;;;;;;;;;;18.95;41.73;96413.47;10400370;28;2054;-46
2022/12/27 01:49:39;;;;;;;;;;;;;;;18.91;41.76;96415.00;10400187;28;2010;-46
2022/12/27 01:54:39;;;;;;;;;;;;;;;18.94;41.63;96419.75;10396012;28;2046;-47
2022/12/27 01:59:39;;;;;;;;;;;;;;;18.89;41.70;96430.22;10397906;28;2110;-46
2022/12/27 02:04:45;;;;;;;;;;;;;;;18.88;41.68;96414.69;10412201;28;1889;-44
2022/12/27 02:09:47;;;;;;;;;;;;;;;18.85;41.75;96434.38;10390557;28;2108;-46
2022/12/27 02:14:48;;;;;;;;;;;;;;;18.86;41.79;96430.69;10406348;28;1964;-44
2022/12/27 02:19:48;;;;;;;;;;;;;;;18.85;41.76;96431.75;10388249;28;1887;-45
2022/12/27 02:24:57;;;;;;;;;;;;;;;18.85;41.71;96428.31;10394272;28;1922;-45
2022/12/27 02:30:04;;;;;;;;;;;;;;;18.83;41.67;96428.56;10408770;28;4496;-45
2022/12/27 02:35:14;;;;;;;;;;;;;;;18.79;41.84;96427.47;10395706;28;1951;-45
2022/12/27 03:07:21;;;;;;;;;;;;;;;18.74;41.47;96473.88;10399139;28;2042;-47
2022/12/27 03:18:02;;;;;;;;;;;;;;;18.76;41.28;96491.00;10404375;28;1971;-44
2022/12/27 03:33:42;;;;;;;;;;;;;;;18.84;40.82;96531.78;10383228;28;1922;-45
2022/12/27 03:38:46;;;;;;;;;;;;;;;18.80;40.84;96538.56;10406710;28;1910;-45
2022/12/27 03:43:47;;;;;;;;;;;;;;;18.81;40.72;96551.47;10403115;28;2072;-46
2022/12/27 03:49:09;;;;;;;;;;;;;;;18.83;40.68;96567.78;10412011;28;1960;-44
2022/12/27 03:54:11;;;;;;;;;;;;;;;18.82;40.68;96584.56;10404391;28;1882;-46
2022/12/27 03:59:12;;;;;;;;;;;;;;;18.85;40.65;96586.72;10398102;28;1965;-44
2022/12/27 04:04:12;;;;;;;;;;;;;;;18.81;40.77;96597.97;10399351;28;2062;-45
2022/12/27 04:35:49;;;;;;;;;;;;;;;18.78;40.54;96651.75;10406785;28;2048;-46
2022/12/27 04:56:54;;;;;;;;;;;;;;;18.77;40.20;96662.50;10395154;28;2179;-44
2022/12/27 05:02:03;;;;;;;;;;;;;;;18.76;40.26;96669.59;10400717;28;1768;-44
2022/12/27 05:17:50;;;;;;;;;;;;;;;18.75;39.93;96699.53;10396621;28;1907;-46
2022/12/27 05:28:09;;;;;;;;;;;;;;;18.73;40.06;96717.38;10401888;28;4526;-46
2022/12/27 05:33:10;;;;;;;;;;;;;;;18.75;39.76;96725.00;10396139;28;1926;-48
2022/12/27 05:38:10;;;;;;;;;;;;;;;18.78;39.65;96720.06;10395336;28;1958;-45
2022/12/27 05:43:10;;;;;;;;;;;;;;;18.77;39.54;96736.88;10405519;28;1926;-45
2022/12/27 05:48:13;;;;;;;;;;;;;;;18.76;39.71;96737.88;10403297;28;2073;-48
2022/12/27 05:53:13;;;;;;;;;;;;;;;18.79;39.60;96752.38;10404983;28;2009;-48
2022/12/27 05:58:14;;;;;;;;;;;;;;;18.77;39.76;96744.75;10389985;28;1957;-45
2022/12/27 06:03:14;;;;;;;;;;;;;;;18.79;39.61;96749.75;10401870;28;1973;-48
2022/12/27 06:08:14;;;;;;;;;;;;;;;18.81;39.41;96755.56;10408319;28;1956;-45
2022/12/27 06:13:14;;;;;;;;;;;;;;;18.77;39.44;96738.69;10410589;28;1902;-44
2022/12/27 06:18:15;;;;;;;;;;;;;;;18.79;39.44;96731.38;10405587;28;1894;-45
2022/12/27 06:23:15;;;;;;;;;;;;;;;18.81;39.41;96731.91;10409686;28;1990;-45
2022/12/27 06:28:15;;;;;;;;;;;;;;;18.84;38.91;96734.84;10400244;28;4492;-45
2022/12/27 06:33:15;;;;;;;;;;;;;;;18.85;38.31;96746.16;10408199;28;1899;-44
2022/12/27 06:38:16;;;;;;;;;;;;;;;18.84;37.92;96748.00;10399396;28;1966;-45
2022/12/27 06:43:16;;;;;;;;;;;;;;;18.87;37.78;96744.91;10404291;28;1909;-45
2022/12/27 06:48:17;;;;;;;;;;;;;;;18.90;37.49;96743.63;10410733;28;1960;-46
2022/12/27 06:53:18;;;;;;;;;;;;;;;18.96;38.00;96751.34;10406065;28;2156;-45
2022/12/27 06:58:18;;;;;;;;;;;;;;;19.00;38.58;96747.19;10405615;28;2049;-46
2022/12/27 07:03:18;;;;;;;;;;;;;;;19.04;38.47;96766.69;10398864;28;1912;-44
2022/12/27 07:08:19;;;;;;;;;;;;;;;19.07;38.31;96766.25;10405819;28;2094;-47
2022/12/27 07:13:19;;;;;;;;;;;;;;;19.10;38.16;96765.75;10409200;28;2085;-47
2022/12/27 07:18:20;;;;;;;;;;;;;;;19.11;38.23;96769.97;10391530;28;1965;-47
2022/12/27 07:23:20;;;;;;;;;;;;;;;19.17;38.69;96776.91;10395444;28;2041;-45
2022/12/27 07:28:21;;;;;;;;;;;;;;;19.19;38.45;96780.09;10400554;28;4467;-45
2022/12/27 07:33:21;;;;;;;;;;;;;;;19.20;38.76;96778.25;10401431;28;2159;-45
2022/12/27 07:38:21;;;;;;;;;;;;;;;19.26;38.73;96785.19;10403943;28;2056;-45
2022/12/27 07:43:21;;;;;;;;;;;;;;;19.27;38.88;96787.56;10399706;28;2026;-48
2022/12/27 07:48:22;;;;;;;;;;;;;;;19.30;38.75;96778.41;10404353;28;1994;-46
2022/12/27 07:53:22;;;;;;;;;;;;;;;19.31;38.96;96782.63;10399108;28;1879;-45
2022/12/27 07:58:22;;;;;;;;;;;;;;;19.30;38.41;96791.56;10406105;28;1878;-48
2022/12/27 08:03:27;;;;;;;;;;;;;;;19.34;38.39;96792.69;10400008;28;1942;-46
2022/12/27 08:08:32;;;;;;;;;;;;;;;19.36;38.34;96795.88;10393924;28;1925;-46
2022/12/27 08:13:32;;;;;;;;;;;;;;;19.38;38.01;96788.56;10402135;28;1940;-45
2022/12/27 08:18:33;;;;;;;;;;;;;;;19.40;38.25;96787.28;10401482;28;1905;-46
2022/12/27 08:23:33;;;;;;;;;;;;;;;19.43;38.06;96786.78;10400967;28;1977;-48
2022/12/27 08:28:33;;;;;;;;;;;;;;;19.44;38.27;96788.38;10401555;28;4384;-46
2022/12/27 08:33:34;;;;;;;;;;;;;;;19.47;38.15;96793.16;10397241;28;2069;-45
2022/12/27 08:38:34;;;;;;;;;;;;;;;19.50;38.34;96799.78;10404409;28;1922;-46
2022/12/27 08:43:34;;;;;;;;;;;;;;;19.58;38.32;96783.56;10401998;28;2140;-44
2022/12/27 08:48:36;;;;;;;;;;;;;;;19.62;38.54;96794.44;10404383;28;1973;-45
2022/12/27 08:53:36;;;;;;;;;;;;;;;19.65;38.35;96804.44;10400732;28;1905;-46
2022/12/27 08:58:36;;;;;;;;;;;;;;;19.67;38.08;96802.38;10401528;28;2054;-46
2022/12/27 09:03:37;;;;;;;;;;;;;;;19.69;38.25;96806.34;10398235;28;1935;-46
2022/12/27 09:08:37;;;;;;;;;;;;;;;19.73;38.58;96814.56;10405413;28;1963;-46
2022/12/27 09:13:38;;;;;;;;;;;;;;;19.75;38.03;96805.38;10394868;28;1929;-44
2022/12/27 09:18:39;;;;;;;;;;;;;;;19.81;38.38;96820.19;10400404;28;1942;-44
2022/12/27 09:23:41;;;;;;;;;;;;;;;19.84;38.47;96829.44;10401084;28;1806;-46
2022/12/27 09:28:41;;;;;;;;;;;;;;;19.83;38.54;96828.66;10401046;28;4400;-45
2022/12/27 09:33:42;;;;;;;;;;;;;;;19.81;38.58;96841.25;10399023;28;2017;-47
2022/12/27 09:38:44;;;;;;;;;;;;;;;19.81;38.19;96838.63;10402096;28;2153;-45
2022/12/27 09:44:03;;;;;;;;;;;;;;;19.81;38.36;96843.06;10397371;28;1994;-45
2022/12/27 09:49:03;;;;;;;;;;;;;;;19.86;38.60;96828.19;10414142;28;2116;-46
2022/12/27 09:54:06;;;;;;;;;;;;;;;19.84;38.59;96824.19;10397546;28;1993;-44
2022/12/27 09:59:19;;;;;;;;;;;;;;;19.84;38.92;96816.28;10413541;28;1909;-45
2022/12/27 10:04:20;;;;;;;;;;;;;;;19.85;38.83;96815.25;10398255;28;1895;-44
2022/12/27 10:09:29;;;;;;;;;;;;;;;19.86;39.01;96816.84;10402163;28;2227;-44
2022/12/27 10:14:44;;;;;;;;;;;;;;;19.82;39.13;96802.59;10396759;28;2098;-44
2022/12/27 10:19:51;;;;;;;;;;;;;;;19.79;39.22;96810.94;10395885;28;1928;-43
2022/12/27 10:24:52;;;;;;;;;;;;;;;19.74;39.55;96801.16;10394258;28;2061;-46
2022/12/27 10:29:53;;;;;;;;;;;;;;;19.80;39.53;96812.56;10410332;28;4396;-45
2022/12/27 10:34:54;;;;;;;;;;;;;;;19.74;39.72;96800.38;10400096;28;2037;-43
2022/12/27 10:39:56;;;;;;;;;;;;;;;19.73;39.60;96801.41;10396263;28;2006;-43
2022/12/27 10:45:16;;;;;;;;;;;;;;;19.68;39.58;96798.72;10402705;28;1789;-45
2022/12/27 10:50:16;;;;;;;;;;;;;;;19.69;39.67;96795.84;10404765;28;1976;-45
2022/12/27 10:55:49;;;;;;;;;;;;;;;19.67;39.58;96799.75;10409363;28;2091;-44
2022/12/27 11:00:53;;;;;;;;;;;;;;;19.57;39.82;96796.97;10397293;28;1970;-44
2022/12/27 11:06:01;;;;;;;;;;;;;;;19.57;40.18;96792.53;10405563;28;1945;-45
2022/12/27 11:11:11;;;;;;;;;;;;;;;19.55;40.19;96786.72;10403271;28;1950;-44
2022/12/27 11:16:15;;;;;;;;;;;;;;;19.56;40.11;96780.38;10401886;28;1941;-45
2022/12/27 11:21:15;;;;;;;;;;;;;;;19.54;40.40;96777.22;10403587;28;1950;-44
2022/12/27 11:26:20;;;;;;;;;;;;;;;19.55;40.16;96778.00;10398567;28;4334;-44
2022/12/27 11:31:30;;;;;;;;;;;;;;;19.46;40.73;96775.00;10398038;28;2173;-49
2022/12/27 11:36:31;;;;;;;;;;;;;;;19.52;41.33;96758.25;10402108;28;2124;-48
2022/12/27 11:41:42;;;;;;;;;;;;;;;19.56;41.38;96755.94;10398796;28;2071;-46
2022/12/27 11:46:50;;;;;;;;;;;;;;;19.52;41.65;96746.94;10382125;28;1912;-48
2022/12/27 11:52:05;;;;;;;;;;;;;;;19.48;41.83;96750.06;10406085;28;1941;-47
2022/12/27 11:57:24;;;;;;;;;;;;;;;19.49;41.62;96750.84;10405398;28;1886;-45
2022/12/27 12:02:31;;;;;;;;;;;;;;;19.41;41.69;96756.53;10406986;28;1949;-50
2022/12/27 12:07:39;;;;;;;;;;;;;;;19.39;41.71;96764.63;10397195;28;1961;-46
2022/12/27 12:12:39;;;;;;;;;;;;;;;19.38;41.73;96757.81;10397263;28;1921;-47
2022/12/27 12:17:45;;;;;;;;;;;;;;;19.34;41.75;96751.44;10399727;28;1941;-48
2022/12/27 12:23:12;;;;;;;;;;;;;;;19.32;41.64;96748.22;10399944;28;1898;-48
2022/12/27 12:28:21;;;;;;;;;;;;;;;19.27;41.36;96734.19;10396181;28;4416;-49
2022/12/27 12:33:28;;;;;;;;;;;;;;;19.27;41.57;96744.69;10400524;28;2010;-48
2022/12/27 12:38:45;;;;;;;;;;;;;;;19.19;41.63;96743.28;10401091;28;1851;-46
2022/12/27 12:44:09;;;;;;;;;;;;;;;19.20;41.46;96734.38;10411685;28;1922;-46
2022/12/27 12:49:12;;;;;;;;;;;;;;;19.22;41.11;96739.38;10400377;28;1961;-45
2022/12/27 12:54:27;;;;;;;;;;;;;;;19.24;40.97;96735.50;10392760;28;1998;-47
2022/12/27 12:59:48;;;;;;;;;;;;;;;19.17;41.07;96728.78;10390941;28;1961;-45
2022/12/27 13:05:04;;;;;;;;;;;;;;;19.18;41.01;96722.50;10396121;28;1945;-48
2022/12/27 13:10:38;;;;;;;;;;;;;;;19.12;41.04;96721.66;10398773;28;1971;-46
2022/12/27 13:15:48;;;;;;;;;;;;;;;19.13;40.85;96710.09;10396521;28;1962;-46
2022/12/27 13:21:05;;;;;;;;;;;;;;;19.12;40.98;96710.34;10394938;28;2002;-45
2022/12/27 13:26:12;;;;;;;;;;;;;;;19.07;41.22;96707.63;10397218;28;2054;-46
2022/12/27 13:31:39;;;;;;;;;;;;;;;19.17;41.41;96721.72;10393841;28;1984;-49
2022/12/27 13:36:59;;;;;;;;;;;;;;;19.14;41.55;96718.78;10406075;28;1773;-45
2022/12/27 13:42:05;;;;;;;;;;;;;;;19.13;41.88;96707.47;10394007;28;1991;-45
2022/12/27 13:47:24;;;;;;;;;;;;;;;19.14;42.07;96705.63;10417904;28;1903;-46
2022/12/27 13:52:43;;;;;;;;;;;;;;;19.13;41.92;96693.50;10395585;28;1980;-46
2022/12/27 13:58:17;;;;;;;;;;;;;;;19.09;41.92;96687.16;10393243;28;2069;-48
2022/12/27 14:03:32;;;;;;;;;;;;;;;19.05;41.96;96694.72;10399356;28;2041;-48
2022/12/27 14:09:03;;;;;;;;;;;;;;;19.04;41.66;96697.59;10399213;28;1902;-52
2022/12/27 14:14:03;;;;;;;;;;;;;;;19.02;41.52;96700.44;10398798;28;8192;-50
2022/12/27 14:19:20;;;;;;;;;;;;;;;19.01;41.54;96709.38;10399296;28;8007;-54
2022/12/27 14:24:41;;;;;;;;;;;;;;;18.97;41.39;96708.28;10427280;28;8270;-49
2022/12/27 14:30:05;;;;;;;;;;;;;;;18.98;41.34;96709.84;10426526;28;2155;-50
2022/12/27 14:35:24;;;;;;;;;;;;;;;18.98;41.27;96712.47;10405224;28;2303;-49
2022/12/27 14:40:53;;;;;;;;;;;;;;;18.92;41.23;96710.81;10398250;28;1786;-53
2022/12/27 14:46:18;;;;;;;;;;;;;;;18.90;41.24;96718.13;10403716;28;1783;-51
2022/12/27 14:51:27;;;;;;;;;;;;;;;18.90;40.78;96714.75;10406643;28;5515;-50
2022/12/27 14:56:31;;;;;;;;;;;;;;;18.85;41.17;96720.69;10408144;28;1725;-51
2022/12/27 15:02:05;;;;;;;;;;;;;;;18.84;41.41;96726.97;10401300;28;2093;-52
2022/12/27 15:07:18;;;;;;;;;;;;;;;18.83;41.22;96724.59;10395262;28;1764;-48
2022/12/27 15:12:28;;;;;;;;;;;;;;;18.83;41.30;96714.91;10404039;28;1906;-53
2022/12/27 15:17:48;;;;;;;;;;;;;;;18.85;40.99;96720.69;10405245;28;1750;-51
2022/12/27 15:23:04;;;;;;;;;;;;;;;18.81;40.98;96721.41;10404013;28;3497;-51
2022/12/27 15:28:29;;;;;;;;;;;;;;;18.78;41.16;96716.63;10409160;28;1960;-49
2022/12/27 15:33:40;;;;;;;;;;;;;;;18.79;40.78;96729.53;10408695;28;1857;-47
2022/12/27 15:38:49;;;;;;;;;;;;;;;18.78;40.80;96712.16;10401612;28;1781;-51
2022/12/27 15:44:13;;;;;;;;;;;;;;;18.76;40.96;96708.19;10403957;28;1886;-47
2022/12/27 15:49:18;;;;;;;;;;;;;;;18.79;40.75;96715.59;10392182;28;1973;-51
2022/12/27 15:54:38;;;;;;;;;;;;;;;18.89;40.59;96723.63;10391214;28;2141;-52
2022/12/27 15:59:52;;;;;;;;;;;;;;;19.00;40.51;96728.03;10400803;28;1980;-50
2022/12/27 16:04:55;;;;;;;;;;;;;;;19.14;40.07;96729.28;10412818;28;2124;-48
2022/12/27 16:09:56;;;;;;;;;;;;;;;19.21;39.87;96730.69;10380420;28;2076;-48
2022/12/27 16:15:25;;;;;;;;;;;;;;;19.26;39.99;96725.53;10392571;28;1964;-49
2022/12/27 16:20:35;;;;;;;;;;;;;;;19.18;38.50;96710.16;10393507;28;1984;-50
2022/12/27 16:25:45;;;;;;;;;;;;;;;19.16;38.01;96704.38;10402807;28;5955;-49
2022/12/27 16:30:59;;;;;;;;;;;;;;;19.18;38.18;96714.63;10393440;28;1973;-46
2022/12/27 16:36:18;;;;;;;;;;;;;;;19.35;39.15;96710.94;10412625;28;1843;-47
2022/12/27 16:41:49;;;;;;;;;;;;;;;19.37;38.67;96708.88;10391702;28;2014;-46
2022/12/27 16:47:10;;;;;;;;;;;;;;;19.40;38.58;96703.16;10399401;28;1970;-47
2022/12/27 16:52:29;;;;;;;;;;;;;;;19.49;38.92;96700.91;10410859;28;1981;-49
2022/12/27 16:57:44;;;;;;;;;;;;;;;19.53;38.53;96686.22;10391940;28;2038;-52
2022/12/27 17:02:49;;;;;;;;;;;;;;;19.60;39.36;96683.41;10395409;28;2019;-47
2022/12/27 17:07:52;;;;;;;;;;;;;;;19.71;39.51;96670.13;10395929;28;1979;-47
2022/12/27 17:13:12;;;;;;;;;;;;;;;19.71;38.50;96670.13;10385180;28;2009;-48
2022/12/27 17:18:21;;;;;;;;;;;;;;;19.63;37.36;96675.00;10395144;28;2003;-46
2022/12/27 17:23:21;;;;;;;;;;;;;;;19.66;39.62;96671.91;10394025;28;4927;-46
2022/12/27 17:28:23;;;;;;;;;;;;;;;19.74;39.48;96660.94;10392274;28;2009;-48
2022/12/27 17:33:39;;;;;;;;;;;;;;;19.96;39.73;96648.56;10389305;28;2065;-45
2022/12/27 17:38:48;;;;;;;;;;;;;;;19.97;39.70;96650.94;10385582;28;2122;-44
2022/12/27 17:49:24;;;;;;;;;;;;;;;20.03;39.45;96644.69;10388645;28;2048;-48
2022/12/27 17:59:44;;;;;;;;;;;;;;;20.06;39.71;96648.66;10400662;28;1985;-45
2022/12/27 18:04:46;;;;;;;;;;;;;;;20.09;38.71;96641.06;10393007;28;2010;-47
2022/12/27 18:09:47;;;;;;;;;;;;;;;20.08;38.44;96636.03;10396081;28;2073;-47
2022/12/27 18:14:51;;;;;;;;;;;;;;;20.08;39.16;96636.84;10391970;28;2282;-48
2022/12/27 18:19:53;;;;;;;;;;;;;;;20.16;38.70;96636.41;10418492;28;2018;-43
2022/12/27 18:24:53;;;;;;;;;;;;;;;20.32;38.95;96626.81;10397582;28;1949;-52
2022/12/27 18:29:54;;;;;;;;;;;;;;;20.20;37.50;96626.19;10394924;28;2066;-55
2022/12/27 18:34:57;;;;;;;;;;;;;;;20.21;37.40;96619.88;10391878;28;1970;-48
2022/12/27 18:40:03;;;;;;;;;;;;;;;20.21;36.32;96606.72;10411861;28;1981;-46
2022/12/27 18:45:04;;;;;;;;;;;;;;;20.23;36.41;96602.81;10398404;28;1842;-49
2022/12/27 18:50:05;;;;;;;;;;;;;;;20.27;36.67;96608.34;10399561;28;1906;-48
2022/12/27 18:55:16;;;;;;;;;;;;;;;20.33;37.24;96614.44;10409487;28;1884;-45
2022/12/27 19:00:24;;;;;;;;;;;;;;;20.37;36.92;96607.63;10397989;28;2002;-50
2022/12/27 19:05:25;;;;;;;;;;;;;;;20.43;36.53;96599.53;10393444;28;2097;-50
2022/12/27 19:10:26;;;;;;;;;;;;;;;20.68;38.17;96597.06;10400357;28;1942;-53
2022/12/27 19:15:40;;;;;;;;;;;;;;;20.60;36.13;96608.09;10394250;28;2003;-55
2022/12/27 19:20:40;;;;;;;;;;;;;;;20.66;36.07;96609.72;10391223;28;2054;-49
2022/12/27 19:25:42;;;;;;;;;;;;;;;20.74;38.15;96605.78;10399856;28;5111;-54
2022/12/27 19:30:46;;;;;;;;;;;;;;;20.78;35.87;96605.03;10392441;28;2061;-55
2022/12/27 19:35:47;;;;;;;;;;;;;;;20.82;35.90;96598.22;10393657;28;1992;-51
2022/12/27 19:40:48;;;;;;;;;;;;;;;20.89;36.17;96590.88;10392902;28;2018;-50
2022/12/27 19:45:49;;;;;;;;;;;;;;;20.94;35.96;96580.38;10395655;28;1910;-49
2022/12/27 19:50:50;;;;;;;;;;;;;;;21.00;35.50;96581.97;10398991;28;1984;-54
2022/12/27 19:55:50;;;;;;;;;;;;;;;21.25;38.77;96591.88;10396448;28;1998;-55
2022/12/27 20:00:51;;;;;;;;;;;;;;;21.32;39.83;96589.81;10392888;28;1977;-45
2022/12/27 20:05:54;;;;;;;;;;;;;;;21.21;36.99;96576.81;10388856;28;2273;-44
2022/12/27 20:10:55;;;;;;;;;;;;;;;20.84;36.00;96579.50;10395059;28;1961;-46
2022/12/27 20:15:55;;;;;;;;;;;;;;;20.71;35.80;96577.34;10399214;28;1983;-46
2022/12/27 20:20:56;;;;;;;;;;;;;;;20.63;35.76;96575.19;10397958;28;1984;-44
2022/12/27 20:25:56;;;;;;;;;;;;;;;20.46;35.98;96580.59;10387417;28;4981;-46
2022/12/27 20:31:11;;;;;;;;;;;;;;;19.97;36.52;96577.25;10393267;28;1944;-46
2022/12/27 20:36:11;;;;;;;;;;;;;;;19.75;36.53;96563.38;10400280;28;1973;-47
2022/12/27 20:41:12;;;;;;;;;;;;;;;19.79;37.16;96566.28;10394229;28;1978;-45
2022/12/27 20:46:16;;;;;;;;;;;;;;;20.23;36.14;96560.69;10389437;28;1958;-45
2022/12/27 20:51:17;;;;;;;;;;;;;;;20.46;34.96;96564.00;10392299;28;1972;-45
2022/12/27 20:56:17;;;;;;;;;;;;;;;20.60;34.71;96560.69;10398367;28;1942;-45
2022/12/27 21:01:21;;;;;;;;;;;;;;;20.67;34.11;96561.22;10385436;28;1992;-44
2022/12/27 21:06:22;;;;;;;;;;;;;;;20.73;33.81;96552.31;10386104;28;2099;-45
2022/12/27 21:11:23;;;;;;;;;;;;;;;20.79;33.89;96553.16;10397089;28;1989;-45
2022/12/27 21:16:28;;;;;;;;;;;;;;;20.82;33.70;96545.50;10394973;28;2065;-44
2022/12/27 21:21:28;;;;;;;;;;;;;;;20.85;33.41;96541.59;10394662;28;5002;-45
2022/12/27 21:26:29;;;;;;;;;;;;;;;20.87;33.34;96528.94;10397141;28;1910;-44
2022/12/27 21:31:30;;;;;;;;;;;;;;;20.90;33.50;96523.94;10394195;28;1985;-44
2022/12/27 21:36:31;;;;;;;;;;;;;;;20.94;33.19;96532.13;10398047;28;1948;-45
2022/12/27 21:41:32;;;;;;;;;;;;;;;20.96;33.40;96525.56;10391326;28;1890;-46
2022/12/27 21:46:36;;;;;;;;;;;;;;;20.98;33.00;96520.81;10389768;28;2024;-46
2022/12/27 21:51:36;;;;;;;;;;;;;;;20.97;32.99;96524.50;10390667;28;1910;-47
2022/12/27 21:56:37;;;;;;;;;;;;;;;20.98;32.88;96528.72;10392051;28;2034;-44
2022/12/27 22:01:38;;;;;;;;;;;;;;;20.99;32.56;96521.63;10384976;28;2086;-44
2022/12/27 22:06:39;;;;;;;;;;;;;;;20.97;32.43;96513.97;10379102;28;2133;-44
2022/12/27 22:11:39;;;;;;;;;;;;;;;21.00;32.85;96515.28;10398826;28;1949;-47
2022/12/27 22:16:40;;;;;;;;;;;;;;;20.99;32.69;96522.41;10386731;28;1933;-44
2022/12/27 22:21:41;;;;;;;;;;;;;;;20.99;32.95;96514.50;10387183;28;5130;-44
2022/12/27 22:26:41;;;;;;;;;;;;;;;21.00;32.91;96500.25;10393747;28;1938;-45
2022/12/27 22:31:42;;;;;;;;;;;;;;;20.99;33.06;96500.53;10392990;28;1937;-44
2022/12/27 22:36:42;;;;;;;;;;;;;;;20.97;33.21;96492.88;10398023;28;1966;-44
2022/12/27 22:41:42;;;;;;;;;;;;;;;20.97;33.39;96490.25;10400079;28;1902;-44
2022/12/27 22:46:43;;;;;;;;;;;;;;;20.96;33.68;96491.28;10404367;28;2002;-49
2022/12/27 22:51:43;;;;;;;;;;;;;;;20.95;33.69;96489.72;10403008;28;2029;-45
2022/12/27 22:56:43;;;;;;;;;;;;;;;20.92;33.62;96484.94;10390385;28;2034;-45
2022/12/27 23:01:46;;;;;;;;;;;;;;;20.92;34.33;96484.16;10403128;28;1961;-46
2022/12/27 23:06:46;;;;;;;;;;;;;;;20.90;34.60;96487.03;10401444;28;2315;-45
2022/12/27 23:11:46;;;;;;;;;;;;;;;20.86;34.78;96480.72;10401414;28;1918;-45
2022/12/27 23:16:47;;;;;;;;;;;;;;;20.81;34.42;96478.03;10403697;28;1902;-44
2022/12/27 23:21:47;;;;;;;;;;;;;;;20.80;34.84;96465.94;10402275;28;5025;-45
2022/12/27 23:26:47;;;;;;;;;;;;;;;20.78;35.06;96468.03;10404547;28;1771;-45
2022/12/27 23:31:48;;;;;;;;;;;;;;;20.76;35.01;96464.84;10394598;28;1988;-44
2022/12/27 23:36:48;;;;;;;;;;;;;;;20.74;34.96;96456.41;10399173;28;1976;-46
2022/12/27 23:41:49;;;;;;;;;;;;;;;20.71;34.95;96462.19;10398740;28;1989;-45
2022/12/27 23:46:49;;;;;;;;;;;;;;;20.69;34.82;96456.38;10411761;28;2170;-44
2022/12/27 23:51:51;;;;;;;;;;;;;;;20.67;35.14;96463.75;10398466;28;2017;-45
2022/12/27 23:56:51;;;;;;;;;;;;;;;20.63;35.08;96465.31;10378435;28;1988;-45
